createdAt,value
2023-03-29T00:00:51.052Z,48.34
2023-03-29T00:03:54.192Z,49.29
2023-03-29T00:06:57.921Z,49.05
2023-03-29T00:09:59.818Z,48.83
2023-03-29T00:13:02.652Z,49.26
2023-03-29T00:16:04.927Z,50.18
2023-03-29T00:19:07.560Z,50.86
2023-03-29T00:22:11.208Z,51.46
2023-03-29T00:25:14.247Z,51.13
2023-03-29T00:28:16.081Z,52.31
2023-03-29T00:31:19.247Z,51.11
2023-03-29T00:34:21.577Z,50.67
2023-03-29T00:37:30.058Z,50.84
2023-03-29T00:40:32.111Z,52.02
2023-03-29T00:43:56.726Z,50.86
2023-03-29T00:46:58.654Z,51.74
2023-03-29T00:50:06.997Z,50.57
2023-03-29T00:53:13.190Z,50.35
2023-03-29T00:56:20.090Z,50.99
2023-03-29T00:59:28.236Z,50.33
2023-03-29T01:02:35.052Z,50.66
2023-03-29T01:05:40.744Z,50.16
2023-03-29T01:08:50.311Z,51.10
2023-03-29T01:11:55.735Z,50.52
2023-03-29T01:15:02.402Z,51.81
2023-03-29T01:18:04.685Z,51.31
2023-03-29T01:21:17.227Z,50.86
2023-03-29T01:24:47.662Z,51.28
2023-03-29T01:27:55.085Z,50.75
2023-03-29T01:31:03.871Z,50.19
2023-03-29T01:34:10.657Z,50.66
2023-03-29T01:37:18.065Z,50.60
2023-03-29T01:40:20.070Z,50.78
2023-03-29T01:43:28.119Z,51.52
2023-03-29T01:46:35.162Z,51.07
2023-03-29T01:49:42.270Z,51.32
2023-03-29T01:52:51.488Z,50.84
2023-03-29T01:55:56.462Z,50.63
2023-03-29T01:59:04.145Z,51.12
2023-03-29T02:02:11.682Z,50.91
2023-03-29T02:05:16.795Z,52.19
2023-03-29T02:08:21.479Z,51.00
2023-03-29T02:11:24.955Z,52.02
2023-03-29T02:14:30.470Z,50.45
2023-03-29T02:17:32.684Z,50.85
2023-03-29T02:20:39.455Z,51.68
2023-03-29T02:23:45.891Z,51.49
2023-03-29T02:26:48.905Z,52.35
2023-03-29T02:29:52.290Z,52.96
2023-03-29T02:32:59.684Z,53.13
2023-03-29T02:36:08.159Z,52.88
2023-03-29T02:39:15.642Z,52.67
2023-03-29T02:42:20.582Z,53.27
2023-03-29T02:45:25.717Z,52.17
2023-03-29T02:48:30.152Z,53.10
2023-03-29T02:51:35.526Z,53.29
2023-03-29T02:54:43.601Z,52.71
2023-03-29T02:57:45.603Z,52.46
2023-03-29T03:00:49.409Z,53.15
2023-03-29T03:03:51.970Z,53.18
2023-03-29T03:06:54.307Z,52.91
2023-03-29T03:09:56.648Z,53.56
2023-03-29T03:12:59.241Z,54.44
2023-03-29T03:16:03.292Z,53.34
2023-03-29T03:19:05.327Z,53.20
2023-03-29T03:22:10.017Z,53.93
2023-03-29T03:25:12.087Z,53.77
2023-03-29T03:28:14.083Z,53.47
2023-03-29T03:31:17.702Z,53.68
2023-03-29T03:34:19.649Z,53.63
2023-03-29T03:37:22.647Z,53.00
2023-03-29T03:40:26.565Z,52.52
2023-03-29T03:43:30.056Z,52.25
2023-03-29T03:46:33.303Z,51.57
2023-03-29T03:49:35.581Z,50.35
2023-03-29T03:52:37.966Z,49.31
2023-03-29T03:55:39.820Z,48.65
2023-03-29T03:58:42.301Z,48.61
2023-03-29T04:01:45.558Z,48.16
2023-03-29T04:04:47.740Z,47.28
2023-03-29T04:07:50.076Z,47.05
2023-03-29T04:10:53.353Z,47.23
2023-03-29T04:13:57.727Z,48.06
2023-03-29T04:17:01.497Z,46.49
2023-03-29T04:20:10.353Z,46.07
2023-03-29T04:23:12.467Z,45.90
2023-03-29T04:26:14.880Z,45.16
2023-03-29T04:29:16.992Z,45.95
2023-03-29T04:32:20.860Z,48.07
2023-03-29T04:35:22.783Z,45.24
2023-03-29T04:38:24.888Z,45.13
2023-03-29T04:41:27.445Z,44.96
2023-03-29T04:44:30.066Z,45.57
2023-03-29T04:47:36.321Z,43.76
2023-03-29T04:50:38.153Z,44.52
2023-03-29T04:53:40.783Z,44.28
2023-03-29T04:56:42.699Z,43.71
2023-03-29T04:59:44.795Z,44.14
2023-03-29T05:02:48.288Z,42.94
2023-03-29T05:05:50.843Z,42.68
2023-03-29T05:08:52.864Z,45.25
2023-03-29T05:11:54.766Z,43.15
2023-03-29T05:14:57.445Z,43.39
2023-03-29T05:18:00.935Z,45.02
2023-03-29T05:21:04.657Z,43.52
2023-03-29T05:24:07.026Z,43.68
2023-03-29T05:27:10.041Z,44.79
2023-03-29T05:30:13.393Z,43.67
2023-03-29T05:33:17.666Z,45.61
2023-03-29T05:36:19.878Z,44.70
2023-03-29T05:39:23.530Z,46.57
2023-03-29T05:42:25.421Z,44.17
2023-03-29T05:45:29.853Z,43.67
2023-03-29T05:48:33.620Z,44.30
2023-03-29T05:51:35.728Z,43.32
2023-03-29T05:54:37.598Z,43.91
2023-03-29T05:57:39.627Z,44.67
2023-03-29T06:00:42.924Z,43.92
2023-03-29T06:03:47.425Z,48.50
2023-03-29T06:06:49.621Z,55.52
2023-03-29T06:09:51.520Z,57.16
2023-03-29T06:12:53.738Z,53.39
2023-03-29T06:15:55.736Z,50.02
2023-03-29T06:18:59.375Z,49.51
2023-03-29T06:22:01.546Z,48.87
2023-03-29T06:25:04.297Z,48.80
2023-03-29T06:28:06.181Z,48.65
2023-03-29T06:31:10.228Z,49.91
2023-03-29T06:34:13.939Z,45.89
2023-03-29T06:37:16.676Z,43.12
2023-03-29T06:40:19.299Z,42.25
2023-03-29T06:43:21.775Z,41.50
2023-03-29T06:46:23.782Z,40.75
2023-03-29T06:49:27.494Z,41.07
2023-03-29T06:52:29.712Z,39.13
2023-03-29T06:55:32.152Z,37.49
2023-03-29T06:58:34.419Z,37.06
2023-03-29T07:01:37.509Z,36.46
2023-03-29T07:04:41.998Z,40.45
2023-03-29T07:08:00.368Z,41.16
2023-03-29T07:11:03.595Z,41.21
2023-03-29T07:14:05.740Z,40.48
2023-03-29T07:17:07.580Z,40.38
2023-03-29T07:20:14.329Z,40.10
2023-03-29T07:23:16.187Z,40.59
2023-03-29T07:26:28.982Z,40.51
2023-03-29T07:29:31.914Z,40.34
2023-03-29T07:32:34.459Z,40.82
2023-03-29T07:35:39.872Z,39.46
2023-03-29T07:38:41.837Z,41.43
2023-03-29T07:41:44.380Z,40.53
2023-03-29T07:44:46.226Z,40.79
2023-03-29T07:47:49.291Z,41.14
2023-03-29T07:50:52.734Z,39.30
2023-03-29T07:53:55.522Z,41.61
2023-03-29T07:56:57.679Z,41.18
2023-03-29T07:59:59.677Z,39.25
2023-03-29T08:03:03.918Z,39.07
2023-03-29T08:06:07.790Z,37.63
2023-03-29T08:09:10.294Z,37.96
2023-03-29T08:12:12.707Z,41.11
2023-03-29T08:15:16.441Z,40.34
2023-03-29T08:18:18.359Z,42.91
2023-03-29T08:21:21.608Z,43.00
2023-03-29T08:24:23.547Z,43.74
2023-03-29T08:27:26.024Z,43.33
2023-03-29T08:30:28.283Z,43.56
2023-03-29T08:33:30.291Z,44.03
2023-03-29T08:36:33.702Z,41.78
2023-03-29T08:39:36.019Z,41.26
2023-03-29T08:42:55.365Z,40.90
2023-03-29T08:46:09.032Z,41.89
2023-03-29T08:49:12.494Z,39.79
2023-03-29T08:52:23.989Z,39.30
2023-03-29T08:55:33.341Z,38.71
2023-03-29T08:58:37.783Z,37.89
2023-03-29T09:01:40.375Z,38.53
2023-03-29T09:04:42.659Z,39.30
2023-03-29T09:07:46.921Z,37.76
2023-03-29T09:11:04.934Z,36.47
2023-03-29T09:14:24.958Z,37.36
2023-03-29T09:17:42.612Z,36.85
2023-03-29T09:20:53.667Z,37.74
2023-03-29T09:24:15.677Z,37.54
2023-03-29T09:27:24.071Z,36.52
2023-03-29T09:30:29.521Z,35.77
2023-03-29T09:33:42.844Z,35.49
2023-03-29T09:36:52.521Z,34.69
2023-03-29T09:39:57.727Z,36.17
2023-03-29T09:43:02.360Z,32.26
2023-03-29T09:46:11.146Z,34.69
2023-03-29T09:49:17.704Z,34.16
2023-03-29T09:52:21.040Z,34.43
2023-03-29T09:55:28.500Z,34.68
2023-03-29T09:58:34.351Z,34.48
2023-03-29T10:01:38.833Z,34.71
2023-03-29T10:04:43.029Z,34.58
2023-03-29T10:07:47.291Z,35.61
2023-03-29T10:10:51.161Z,37.38
2023-03-29T10:13:57.509Z,36.32
2023-03-29T10:16:59.759Z,37.27
2023-03-29T10:20:04.661Z,35.56
2023-03-29T10:23:08.217Z,34.96
2023-03-29T10:26:23.016Z,33.57
2023-03-29T10:29:26.501Z,35.32
2023-03-29T10:32:33.686Z,34.87
2023-03-29T10:35:40.368Z,34.59
2023-03-29T10:38:44.271Z,36.18
2023-03-29T10:41:51.208Z,36.78
2023-03-29T10:44:56.120Z,36.54
2023-03-29T10:47:59.130Z,34.22
2023-03-29T10:51:02.857Z,35.04
2023-03-29T10:54:13.324Z,35.96
2023-03-29T10:57:26.521Z,37.50
2023-03-29T11:00:37.224Z,36.92
2023-03-29T11:03:55.954Z,37.27
2023-03-29T11:07:22.794Z,36.41
2023-03-29T11:10:37.404Z,36.70
2023-03-29T11:13:49.809Z,37.73
2023-03-29T11:16:58.295Z,37.29
2023-03-29T11:20:12.587Z,37.09
2023-03-29T11:23:29.854Z,35.87
2023-03-29T11:26:41.185Z,36.71
2023-03-29T11:29:58.706Z,35.35
2023-03-29T11:33:14.386Z,35.34
2023-03-29T11:36:20.906Z,36.25
2023-03-29T11:39:34.291Z,36.66
2023-03-29T11:42:41.932Z,35.91
2023-03-29T11:45:51.468Z,34.10
2023-03-29T11:49:00.493Z,35.41
2023-03-29T11:52:10.517Z,35.73
2023-03-29T11:55:18.183Z,35.53
2023-03-29T11:58:23.288Z,34.68
2023-03-29T12:01:31.564Z,34.90
2023-03-29T12:04:38.788Z,36.35
2023-03-29T12:07:47.567Z,35.90
2023-03-29T12:10:55.900Z,34.46
2023-03-29T12:14:03.761Z,35.61
2023-03-29T12:17:12.653Z,35.19
2023-03-29T12:20:19.488Z,35.70
2023-03-29T12:23:22.647Z,35.56
2023-03-29T12:26:45.633Z,35.45
2023-03-29T12:30:20.307Z,35.59
2023-03-29T12:33:44.202Z,34.50
2023-03-29T12:37:03.561Z,35.62
2023-03-29T12:40:13.274Z,35.44
2023-03-29T12:43:23.331Z,35.00
2023-03-29T12:46:27.658Z,35.24
2023-03-29T12:49:35.989Z,35.39
2023-03-29T12:52:42.097Z,35.02
2023-03-29T12:55:49.888Z,34.77
2023-03-29T12:59:17.902Z,35.36
2023-03-29T13:02:27.399Z,34.03
2023-03-29T13:05:34.120Z,34.57
2023-03-29T13:08:38.884Z,34.51
2023-03-29T13:11:41.452Z,35.66
2023-03-29T13:14:45.309Z,33.52
2023-03-29T13:17:57.129Z,34.33
2023-03-29T13:21:10.086Z,35.60
2023-03-29T13:24:29.047Z,35.91
2023-03-29T13:27:39.799Z,35.22
2023-03-29T13:30:57.061Z,35.13
2023-03-29T13:34:05.542Z,36.11
2023-03-29T13:37:22.976Z,36.06
2023-03-29T13:40:33.237Z,35.11
2023-03-29T13:43:37.799Z,34.99
2023-03-29T13:46:42.516Z,35.27
2023-03-29T13:49:54.944Z,35.84
2023-03-29T13:53:01.531Z,34.72
2023-03-29T13:56:06.295Z,35.57
2023-03-29T13:59:13.563Z,36.78
2023-03-29T14:02:22.848Z,35.48
2023-03-29T14:05:30.893Z,35.29
2023-03-29T14:08:39.732Z,36.04
2023-03-29T14:11:45.827Z,35.54
2023-03-29T14:14:58.726Z,37.04
2023-03-29T14:18:01.630Z,35.56
2023-03-29T14:21:04.498Z,35.88
2023-03-29T14:24:12.868Z,35.46
2023-03-29T14:27:15.906Z,36.39
2023-03-29T14:30:21.993Z,37.28
2023-03-29T14:33:28.454Z,37.26
2023-03-29T14:36:33.389Z,38.08
2023-03-29T14:39:37.639Z,36.57
2023-03-29T14:42:41.216Z,36.65
2023-03-29T14:45:44.001Z,36.83
2023-03-29T14:48:46.605Z,37.20
2023-03-29T14:51:50.554Z,36.98
2023-03-29T14:54:56.940Z,37.06
2023-03-29T14:58:00.354Z,36.81
2023-03-29T15:01:05.377Z,39.01
2023-03-29T15:04:10.334Z,38.18
2023-03-29T15:07:13.314Z,37.77
2023-03-29T15:10:19.124Z,38.58
2023-03-29T15:13:26.120Z,38.51
2023-03-29T15:16:30.589Z,38.32
2023-03-29T15:19:33.199Z,38.88
2023-03-29T15:22:35.302Z,38.87
2023-03-29T15:25:47.732Z,39.69
2023-03-29T15:28:55.785Z,38.96
2023-03-29T15:31:59.248Z,40.27
2023-03-29T15:35:05.057Z,39.12
2023-03-29T15:38:07.220Z,38.65
2023-03-29T15:41:10.685Z,38.82
2023-03-29T15:44:17.605Z,38.79
2023-03-29T15:47:20.287Z,40.72
2023-03-29T15:50:23.625Z,40.56
2023-03-29T15:53:25.564Z,40.54
2023-03-29T15:56:32.120Z,40.19
2023-03-29T15:59:34.313Z,40.51
2023-03-29T16:02:36.418Z,40.53
2023-03-29T16:05:39.105Z,39.50
2023-03-29T16:08:41.935Z,40.47
2023-03-29T16:11:46.244Z,40.95
2023-03-29T16:14:48.100Z,39.49
2023-03-29T16:17:50.030Z,40.80
2023-03-29T16:20:52.107Z,39.65
2023-03-29T16:23:53.998Z,39.13
2023-03-29T16:26:58.419Z,40.52
2023-03-29T16:30:00.512Z,42.82
2023-03-29T16:33:06.285Z,41.18
2023-03-29T16:36:09.542Z,41.82
2023-03-29T16:39:13.503Z,41.42
2023-03-29T16:42:17.527Z,42.38
2023-03-29T16:45:19.944Z,41.02
2023-03-29T16:48:22.270Z,42.75
2023-03-29T16:51:25.857Z,40.96
2023-03-29T16:54:29.749Z,41.79
2023-03-29T16:57:33.615Z,42.41
2023-03-29T17:00:35.521Z,41.20
2023-03-29T17:03:37.712Z,42.91
2023-03-29T17:06:40.046Z,42.18
2023-03-29T17:09:42.642Z,42.53
2023-03-29T17:12:48.086Z,41.16
2023-03-29T17:15:53.691Z,41.23
2023-03-29T17:19:00.693Z,41.13
2023-03-29T17:22:02.993Z,42.23
2023-03-29T17:25:07.396Z,43.76
2023-03-29T17:28:11.575Z,43.27
2023-03-29T17:31:14.254Z,43.29
2023-03-29T17:34:20.102Z,44.68
2023-03-29T17:37:23.249Z,44.04
2023-03-29T17:40:27.203Z,45.18
2023-03-29T17:43:31.509Z,44.63
2023-03-29T17:46:33.922Z,45.56
2023-03-29T17:49:38.029Z,46.81
2023-03-29T17:52:40.540Z,47.61
2023-03-29T17:55:43.547Z,48.21
2023-03-29T17:58:49.142Z,48.25
2023-03-29T18:01:51.939Z,48.41
2023-03-29T18:04:54.360Z,48.13
2023-03-29T18:07:57.078Z,49.58
2023-03-29T18:11:07.013Z,48.97
2023-03-29T18:14:10.988Z,50.53
2023-03-29T18:17:13.372Z,50.28
2023-03-29T18:20:17.456Z,50.72
2023-03-29T18:23:19.850Z,51.24
2023-03-29T18:26:23.971Z,52.06
2023-03-29T18:29:50.732Z,51.49
2023-03-29T18:32:53.790Z,52.18
2023-03-29T18:35:58.119Z,51.51
2023-03-29T18:39:06.335Z,52.75
2023-03-29T18:42:10.913Z,52.39
2023-03-29T18:45:18.154Z,53.24
2023-03-29T18:48:20.789Z,53.43
2023-03-29T18:51:26.252Z,53.10
2023-03-29T18:54:29.629Z,53.35
2023-03-29T18:57:32.377Z,53.65
2023-03-29T19:00:37.350Z,53.62
2023-03-29T19:03:40.894Z,53.77
2023-03-29T19:06:44.306Z,54.51
2023-03-29T19:09:47.629Z,54.23
2023-03-29T19:12:50.835Z,54.62
2023-03-29T19:15:57.395Z,53.87
2023-03-29T19:19:01.429Z,54.45
2023-03-29T19:22:04.992Z,54.74
2023-03-29T19:25:09.549Z,54.16
2023-03-29T19:28:13.665Z,53.88
2023-03-29T19:31:19.721Z,54.73
2023-03-29T19:34:25.128Z,54.60
2023-03-29T19:37:28.456Z,54.86
2023-03-29T19:40:31.580Z,54.07
2023-03-29T19:43:36.255Z,54.01
2023-03-29T19:46:40.424Z,55.03
2023-03-29T19:49:43.411Z,54.25
2023-03-29T19:52:46.554Z,54.89
2023-03-29T19:55:50.864Z,54.89
2023-03-29T19:58:53.768Z,55.40
2023-03-29T20:01:57.384Z,54.24
2023-03-29T20:04:59.755Z,52.53
2023-03-29T20:08:02.124Z,50.72
2023-03-29T20:11:08.547Z,50.16
2023-03-29T20:14:12.339Z,50.00
2023-03-29T20:17:15.905Z,51.12
2023-03-29T20:20:19.109Z,51.80
2023-03-29T20:23:20.996Z,52.22
2023-03-29T20:26:23.553Z,52.22
2023-03-29T20:29:25.830Z,52.85
2023-03-29T20:32:30.124Z,52.13
2023-03-29T20:35:32.423Z,52.84
2023-03-29T20:38:35.468Z,52.58
2023-03-29T20:41:38.348Z,52.23
2023-03-29T20:44:40.432Z,54.01
2023-03-29T20:47:50.543Z,54.50
2023-03-29T20:50:52.573Z,54.21
2023-03-29T20:54:02.355Z,54.96
2023-03-29T20:57:04.911Z,53.89
2023-03-29T21:00:12.166Z,55.29
2023-03-29T21:03:15.691Z,58.02
2023-03-29T21:06:19.346Z,56.95
2023-03-29T21:09:23.582Z,57.40
2023-03-29T21:12:26.642Z,57.55
2023-03-29T21:15:30.571Z,59.06
2023-03-29T21:18:36.329Z,58.43
2023-03-29T21:21:38.171Z,57.74
2023-03-29T21:24:40.607Z,57.27
2023-03-29T21:27:42.764Z,57.63
2023-03-29T21:30:44.645Z,57.96
2023-03-29T21:33:48.641Z,59.47
2023-03-29T21:36:50.714Z,57.95
2023-03-29T21:39:53.312Z,58.08
2023-03-29T21:42:55.352Z,60.67
2023-03-29T21:45:57.806Z,59.65
2023-03-29T21:49:01.574Z,59.60
2023-03-29T21:52:03.399Z,59.85
2023-03-29T21:55:06.861Z,59.03
2023-03-29T21:58:08.788Z,61.08
2023-03-29T22:01:11.037Z,58.74
2023-03-29T22:04:22.516Z,59.88
2023-03-29T22:07:31.304Z,59.68
2023-03-29T22:10:33.205Z,61.58
2023-03-29T22:13:35.305Z,59.99
2023-03-29T22:16:37.539Z,60.29
2023-03-29T22:19:41.836Z,60.80
2023-03-29T22:22:46.503Z,60.76
2023-03-29T22:25:48.411Z,62.05
2023-03-29T22:28:51.799Z,60.74
2023-03-29T22:31:53.786Z,60.35
2023-03-29T22:34:57.066Z,62.06
2023-03-29T22:37:59.147Z,61.88
2023-03-29T22:41:01.641Z,62.39
2023-03-29T22:44:04.225Z,61.54
2023-03-29T22:47:06.261Z,63.00
2023-03-29T22:50:10.834Z,61.98
2023-03-29T22:53:13.536Z,61.72
2023-03-29T22:56:16.119Z,59.63
2023-03-29T22:59:18.041Z,60.91
2023-03-29T23:02:20.008Z,59.68
2023-03-29T23:05:23.396Z,60.81
2023-03-29T23:08:26.342Z,62.53
2023-03-29T23:11:28.207Z,60.82
2023-03-29T23:14:31.162Z,60.93
2023-03-29T23:17:33.088Z,61.13
2023-03-29T23:20:36.760Z,61.35
2023-03-29T23:23:39.217Z,63.16
2023-03-29T23:26:41.053Z,63.71
2023-03-29T23:29:45.350Z,62.66
2023-03-29T23:32:47.997Z,62.88
2023-03-29T23:35:51.460Z,61.72
2023-03-29T23:38:54.142Z,61.78
2023-03-29T23:41:56.787Z,60.45
2023-03-29T23:44:59.181Z,61.68
2023-03-29T23:48:01.283Z,61.17
2023-03-29T23:51:05.699Z,61.90
2023-03-29T23:54:08.150Z,62.06
2023-03-29T23:57:10.954Z,60.38
